Ana Sayfa
METAR-TAF:

METAR-TAF

Havaalanları :

DuBois / Falls Creek, Pensilvanya, Amerika Birleşik Devletleri

Enlem: 41-11N, Boylam: 078-54W, yükseklik: 555 m

Güncel hava durumu gözlemi

Rapor saat 18:53 UTC de 24 dakika önce yapıldı.
Rüzgar güneybatıdan 15 kt ve 19 kt'a kadar ani rüzgarlar
Sıcaklık 9°C
Nem 20%
Basınç 1017 hPa
Görüş mesafesi: 16.1 km
6500 ft yükseklikte parçalı bulutlu

METAR: KDUJ 231853Z AUTO 23015G19KT 10SM SCT065 09/M13 A3004 RMK AO2 SLP183 T00941128

Saat: 14:17 (19:17 UTC)

Tahmin

Rapor saat 17:20 UTC de 1 saat ve 57 dakika önce yapıldı.
Ayın 23'si saat 18 UTC'den ayın 24'si saat 18 UTC'ye kadar geçerli Tahmin
Rüzgar güneybatıdan 10 kt ve 18 kt'a kadar ani rüzgarlar
Görüş mesafesi: 10 km
7000 ft yükseklikte parçalı bulutlu
Ayın 23'si saat 2300 UTC'den
Rüzgar güney/güneybatıdan 6 kt
Görüş mesafesi: 10 km
5000 ft yükseklikte parçalı çok bulutlu

TAF: KDUJ 231720Z 2318/2418 23010G18KT P6SM SCT070 FM232300 20006KT P6SM BKN050

4.000'den fazla havaalanı için hava durumu gözlemleri ve tahminleri (METAR ve TAF raporları).

Kullanılabilir istasyonlar harita üzerinde sarı ve kırmızı noktalarla gösterilir.

İstasyonun adını görmek için fareyi noktanın üzerinde gezdirin.

Sonrasında hava gözlem ve tahminlerini görmek için tıklayın.

Haritayı değiştirmek için: yaklaştırmak için siyah artı işaretli yeşil düğmeye ve uzaklaştırmak için de eksi işaretli düğmeye hızla tıklayın; bitişik haritalar için yeşil okları kullanın.


METAR-TAF: